sensor_id;sensor_type;location;lat;lon;timestamp;P1;durP1;ratioP1;P2;durP2;ratioP2
5297;SDS011;14738;42.668;23.250;2023-06-22T00:01:59;13.30;;;12.00;;
5297;SDS011;14738;42.668;23.250;2023-06-22T00:04:25;13.50;;;12.30;;
5297;SDS011;14738;42.668;23.250;2023-06-22T00:06:51;12.60;;;11.40;;
5297;SDS011;14738;42.668;23.250;2023-06-22T00:09:18;13.40;;;12.03;;
5297;SDS011;14738;42.668;23.250;2023-06-22T00:11:44;12.80;;;11.70;;
5297;SDS011;14738;42.668;23.250;2023-06-22T00:14:10;12.63;;;11.43;;
5297;SDS011;14738;42.668;23.250;2023-06-22T00:16:36;13.40;;;12.20;;
5297;SDS011;14738;42.668;23.250;2023-06-22T00:19:02;12.70;;;11.50;;
5297;SDS011;14738;42.668;23.250;2023-06-22T00:21:28;13.63;;;12.33;;
5297;SDS011;14738;42.668;23.250;2023-06-22T00:23:54;13.00;;;11.70;;
5297;SDS011;14738;42.668;23.250;2023-06-22T00:26:20;13.60;;;12.30;;
5297;SDS011;14738;42.668;23.250;2023-06-22T00:28:46;13.13;;;11.93;;
5297;SDS011;14738;42.668;23.250;2023-06-22T00:31:12;13.00;;;11.70;;
5297;SDS011;14738;42.668;23.250;2023-06-22T00:33:38;12.60;;;11.40;;
5297;SDS011;14738;42.668;23.250;2023-06-22T00:36:04;13.70;;;12.40;;
5297;SDS011;14738;42.668;23.250;2023-06-22T00:38:31;13.57;;;11.93;;
5297;SDS011;14738;42.668;23.250;2023-06-22T00:40:56;13.87;;;12.47;;
5297;SDS011;14738;42.668;23.250;2023-06-22T00:43:22;12.87;;;11.73;;
5297;SDS011;14738;42.668;23.250;2023-06-22T00:45:47;13.30;;;11.90;;
5297;SDS011;14738;42.668;23.250;2023-06-22T00:48:14;12.57;;;11.33;;
5297;SDS011;14738;42.668;23.250;2023-06-22T00:50:41;13.23;;;11.63;;
5297;SDS011;14738;42.668;23.250;2023-06-22T00:53:08;12.27;;;11.07;;
5297;SDS011;14738;42.668;23.250;2023-06-22T00:55:35;13.20;;;11.87;;
5297;SDS011;14738;42.668;23.250;2023-06-22T00:58:04;12.50;;;11.20;;
5297;SDS011;14738;42.668;23.250;2023-06-22T01:00:36;11.20;;;10.30;;
5297;SDS011;14738;42.668;23.250;2023-06-22T01:03:04;13.20;;;12.00;;
5297;SDS011;14738;42.668;23.250;2023-06-22T01:05:33;12.23;;;11.20;;
5297;SDS011;14738;42.668;23.250;2023-06-22T01:10:51;14.27;;;12.93;;
5297;SDS011;14738;42.668;23.250;2023-06-22T01:16:10;14.07;;;12.63;;
5297;SDS011;14738;42.668;23.250;2023-06-22T01:18:42;14.83;;;13.53;;
5297;SDS011;14738;42.668;23.250;2023-06-22T01:21:10;13.77;;;12.47;;
5297;SDS011;14738;42.668;23.250;2023-06-22T01:28:48;12.47;;;11.37;;
5297;SDS011;14738;42.668;23.250;2023-06-22T01:31:18;12.03;;;10.90;;
5297;SDS011;14738;42.668;23.250;2023-06-22T01:33:48;12.27;;;11.13;;
5297;SDS011;14738;42.668;23.250;2023-06-22T01:36:17;13.47;;;12.07;;
5297;SDS011;14738;42.668;23.250;2023-06-22T01:38:44;14.00;;;12.60;;
5297;SDS011;14738;42.668;23.250;2023-06-22T01:41:12;13.00;;;11.90;;
5297;SDS011;14738;42.668;23.250;2023-06-22T01:43:37;14.17;;;12.77;;
5297;SDS011;14738;42.668;23.250;2023-06-22T01:46:03;13.00;;;11.73;;
5297;SDS011;14738;42.668;23.250;2023-06-22T01:48:29;13.33;;;12.13;;
5297;SDS011;14738;42.668;23.250;2023-06-22T01:50:56;13.93;;;12.77;;
5297;SDS011;14738;42.668;23.250;2023-06-22T01:53:22;12.50;;;11.30;;
5297;SDS011;14738;42.668;23.250;2023-06-22T01:55:48;12.80;;;11.67;;
5297;SDS011;14738;42.668;23.250;2023-06-22T01:58:14;13.47;;;12.07;;
5297;SDS011;14738;42.668;23.250;2023-06-22T02:00:40;13.37;;;12.07;;
5297;SDS011;14738;42.668;23.250;2023-06-22T02:03:14;11.63;;;10.67;;
5297;SDS011;14738;42.668;23.250;2023-06-22T02:05:50;12.90;;;11.73;;
5297;SDS011;14738;42.668;23.250;2023-06-22T02:08:25;13.27;;;12.07;;
5297;SDS011;14738;42.668;23.250;2023-06-22T02:10:54;13.27;;;12.00;;
5297;SDS011;14738;42.668;23.250;2023-06-22T02:13:23;13.20;;;11.90;;
5297;SDS011;14738;42.668;23.250;2023-06-22T02:15:49;12.53;;;11.30;;
5297;SDS011;14738;42.668;23.250;2023-06-22T02:18:16;13.80;;;12.50;;
5297;SDS011;14738;42.668;23.250;2023-06-22T02:20:42;13.13;;;11.87;;
5297;SDS011;14738;42.668;23.250;2023-06-22T02:23:07;11.43;;;10.50;;
5297;SDS011;14738;42.668;23.250;2023-06-22T02:25:33;13.23;;;11.53;;
5297;SDS011;14738;42.668;23.250;2023-06-22T02:28:00;12.73;;;11.07;;
5297;SDS011;14738;42.668;23.250;2023-06-22T02:30:26;11.90;;;10.90;;
5297;SDS011;14738;42.668;23.250;2023-06-22T02:32:52;12.73;;;11.63;;
5297;SDS011;14738;42.668;23.250;2023-06-22T02:35:25;12.83;;;11.40;;
5297;SDS011;14738;42.668;23.250;2023-06-22T02:37:57;12.53;;;11.43;;
5297;SDS011;14738;42.668;23.250;2023-06-22T02:40:24;13.03;;;11.27;;
5297;SDS011;14738;42.668;23.250;2023-06-22T02:42:50;11.37;;;10.40;;
5297;SDS011;14738;42.668;23.250;2023-06-22T02:45:15;12.40;;;11.30;;
5297;SDS011;14738;42.668;23.250;2023-06-22T02:47:41;12.13;;;11.13;;
5297;SDS011;14738;42.668;23.250;2023-06-22T02:50:06;14.33;;;11.80;;
5297;SDS011;14738;42.668;23.250;2023-06-22T02:52:32;12.03;;;10.93;;
5297;SDS011;14738;42.668;23.250;2023-06-22T02:54:57;12.40;;;11.00;;
5297;SDS011;14738;42.668;23.250;2023-06-22T02:57:23;12.67;;;11.40;;
5297;SDS011;14738;42.668;23.250;2023-06-22T02:59:48;13.00;;;11.77;;
5297;SDS011;14738;42.668;23.250;2023-06-22T03:02:13;11.20;;;10.20;;
5297;SDS011;14738;42.668;23.250;2023-06-22T03:04:41;12.40;;;11.20;;
5297;SDS011;14738;42.668;23.250;2023-06-22T03:07:08;13.10;;;11.90;;
5297;SDS011;14738;42.668;23.250;2023-06-22T03:09:33;12.70;;;11.50;;
5297;SDS011;14738;42.668;23.250;2023-06-22T03:11:59;11.70;;;10.73;;
5297;SDS011;14738;42.668;23.250;2023-06-22T03:14:24;11.70;;;10.80;;
5297;SDS011;14738;42.668;23.250;2023-06-22T03:16:49;11.40;;;10.50;;
5297;SDS011;14738;42.668;23.250;2023-06-22T03:19:15;13.30;;;11.70;;
5297;SDS011;14738;42.668;23.250;2023-06-22T03:21:40;10.93;;;10.03;;
5297;SDS011;14738;42.668;23.250;2023-06-22T03:24:06;11.23;;;10.33;;
5297;SDS011;14738;42.668;23.250;2023-06-22T03:26:32;10.90;;;10.00;;
5297;SDS011;14738;42.668;23.250;2023-06-22T03:28:57;10.50;;;9.70;;
5297;SDS011;14738;42.668;23.250;2023-06-22T03:31:23;10.30;;;9.50;;
5297;SDS011;14738;42.668;23.250;2023-06-22T03:33:49;11.43;;;9.70;;
5297;SDS011;14738;42.668;23.250;2023-06-22T03:36:15;10.60;;;9.70;;
5297;SDS011;14738;42.668;23.250;2023-06-22T03:38:47;11.93;;;9.43;;
5297;SDS011;14738;42.668;23.250;2023-06-22T03:41:13;10.77;;;9.87;;
5297;SDS011;14738;42.668;23.250;2023-06-22T03:43:40;11.20;;;10.13;;
5297;SDS011;14738;42.668;23.250;2023-06-22T03:46:06;11.00;;;9.90;;
5297;SDS011;14738;42.668;23.250;2023-06-22T03:48:33;10.60;;;9.27;;
5297;SDS011;14738;42.668;23.250;2023-06-22T03:51:01;10.60;;;9.60;;
5297;SDS011;14738;42.668;23.250;2023-06-22T03:53:29;10.90;;;10.00;;
5297;SDS011;14738;42.668;23.250;2023-06-22T03:55:55;10.67;;;9.67;;
5297;SDS011;14738;42.668;23.250;2023-06-22T03:58:21;12.43;;;10.40;;
5297;SDS011;14738;42.668;23.250;2023-06-22T04:00:47;14.33;;;10.07;;
5297;SDS011;14738;42.668;23.250;2023-06-22T04:03:13;12.30;;;11.30;;
5297;SDS011;14738;42.668;23.250;2023-06-22T04:05:40;11.87;;;10.97;;
5297;SDS011;14738;42.668;23.250;2023-06-22T04:08:06;13.67;;;12.40;;
5297;SDS011;14738;42.668;23.250;2023-06-22T04:10:31;12.80;;;11.57;;
5297;SDS011;14738;42.668;23.250;2023-06-22T04:12:57;13.87;;;12.37;;
5297;SDS011;14738;42.668;23.250;2023-06-22T04:15:22;14.60;;;13.13;;
5297;SDS011;14738;42.668;23.250;2023-06-22T04:17:48;14.63;;;13.30;;
5297;SDS011;14738;42.668;23.250;2023-06-22T04:20:13;13.20;;;12.00;;
5297;SDS011;14738;42.668;23.250;2023-06-22T04:22:39;12.77;;;11.30;;
5297;SDS011;14738;42.668;23.250;2023-06-22T04:25:05;13.37;;;11.60;;
5297;SDS011;14738;42.668;23.250;2023-06-22T04:27:34;14.87;;;11.20;;
5297;SDS011;14738;42.668;23.250;2023-06-22T04:30:07;16.80;;;11.97;;
5297;SDS011;14738;42.668;23.250;2023-06-22T04:32:33;12.70;;;11.70;;
5297;SDS011;14738;42.668;23.250;2023-06-22T04:35:05;11.93;;;10.70;;
5297;SDS011;14738;42.668;23.250;2023-06-22T04:37:32;12.90;;;11.90;;
5297;SDS011;14738;42.668;23.250;2023-06-22T04:39:57;12.60;;;11.43;;
5297;SDS011;14738;42.668;23.250;2023-06-22T04:42:24;11.67;;;10.50;;
5297;SDS011;14738;42.668;23.250;2023-06-22T04:44:53;14.80;;;11.93;;
5297;SDS011;14738;42.668;23.250;2023-06-22T04:47:18;15.83;;;11.60;;
5297;SDS011;14738;42.668;23.250;2023-06-22T04:49:44;13.43;;;12.23;;
5297;SDS011;14738;42.668;23.250;2023-06-22T04:52:10;12.47;;;11.33;;
5297;SDS011;14738;42.668;23.250;2023-06-22T04:54:38;13.13;;;11.93;;
5297;SDS011;14738;42.668;23.250;2023-06-22T04:57:08;14.27;;;11.90;;
5297;SDS011;14738;42.668;23.250;2023-06-22T04:59:37;13.90;;;12.37;;
5297;SDS011;14738;42.668;23.250;2023-06-22T05:02:06;15.80;;;12.30;;
5297;SDS011;14738;42.668;23.250;2023-06-22T05:04:33;12.33;;;11.23;;
5297;SDS011;14738;42.668;23.250;2023-06-22T05:07:00;15.10;;;13.60;;
5297;SDS011;14738;42.668;23.250;2023-06-22T05:09:27;13.33;;;12.03;;
5297;SDS011;14738;42.668;23.250;2023-06-22T05:11:53;14.23;;;12.70;;
5297;SDS011;14738;42.668;23.250;2023-06-22T05:14:19;14.50;;;13.03;;
5297;SDS011;14738;42.668;23.250;2023-06-22T05:16:45;16.17;;;13.03;;
5297;SDS011;14738;42.668;23.250;2023-06-22T05:19:11;13.23;;;11.93;;
5297;SDS011;14738;42.668;23.250;2023-06-22T05:21:37;13.97;;;12.10;;
5297;SDS011;14738;42.668;23.250;2023-06-22T05:24:03;14.33;;;12.90;;
5297;SDS011;14738;42.668;23.250;2023-06-22T05:26:29;13.93;;;12.53;;
5297;SDS011;14738;42.668;23.250;2023-06-22T05:28:56;13.87;;;12.57;;
5297;SDS011;14738;42.668;23.250;2023-06-22T05:31:21;14.27;;;12.77;;
5297;SDS011;14738;42.668;23.250;2023-06-22T05:33:47;15.17;;;12.20;;
5297;SDS011;14738;42.668;23.250;2023-06-22T05:36:14;15.87;;;14.17;;
5297;SDS011;14738;42.668;23.250;2023-06-22T05:38:40;13.13;;;11.93;;
5297;SDS011;14738;42.668;23.250;2023-06-22T05:41:06;13.67;;;12.40;;
5297;SDS011;14738;42.668;23.250;2023-06-22T05:43:32;16.73;;;11.60;;
5297;SDS011;14738;42.668;23.250;2023-06-22T05:45:59;13.13;;;11.57;;
5297;SDS011;14738;42.668;23.250;2023-06-22T05:48:25;19.03;;;11.90;;
5297;SDS011;14738;42.668;23.250;2023-06-22T05:50:51;11.13;;;10.23;;
5297;SDS011;14738;42.668;23.250;2023-06-22T05:53:16;12.23;;;11.20;;
5297;SDS011;14738;42.668;23.250;2023-06-22T05:55:42;11.53;;;10.63;;
5297;SDS011;14738;42.668;23.250;2023-06-22T05:58:09;12.70;;;11.57;;
5297;SDS011;14738;42.668;23.250;2023-06-22T06:00:36;19.77;;;11.40;;
5297;SDS011;14738;42.668;23.250;2023-06-22T06:03:01;12.20;;;11.20;;
5297;SDS011;14738;42.668;23.250;2023-06-22T06:05:32;13.13;;;10.97;;
5297;SDS011;14738;42.668;23.250;2023-06-22T06:07:59;12.40;;;11.30;;
5297;SDS011;14738;42.668;23.250;2023-06-22T06:10:25;12.70;;;11.43;;
5297;SDS011;14738;42.668;23.250;2023-06-22T06:12:51;13.87;;;11.10;;
5297;SDS011;14738;42.668;23.250;2023-06-22T06:15:17;12.00;;;10.80;;
5297;SDS011;14738;42.668;23.250;2023-06-22T06:17:51;11.67;;;10.67;;
5297;SDS011;14738;42.668;23.250;2023-06-22T06:20:21;18.73;;;11.40;;
5297;SDS011;14738;42.668;23.250;2023-06-22T06:22:48;13.63;;;12.43;;
5297;SDS011;14738;42.668;23.250;2023-06-22T06:25:14;13.20;;;11.23;;
5297;SDS011;14738;42.668;23.250;2023-06-22T06:27:46;11.27;;;10.20;;
5297;SDS011;14738;42.668;23.250;2023-06-22T06:30:12;12.47;;;11.37;;
5297;SDS011;14738;42.668;23.250;2023-06-22T06:32:39;11.60;;;10.57;;
5297;SDS011;14738;42.668;23.250;2023-06-22T06:35:08;11.43;;;10.33;;
5297;SDS011;14738;42.668;23.250;2023-06-22T06:37:41;11.40;;;10.40;;
5297;SDS011;14738;42.668;23.250;2023-06-22T06:40:13;10.70;;;9.80;;
5297;SDS011;14738;42.668;23.250;2023-06-22T06:42:40;11.10;;;10.20;;
5297;SDS011;14738;42.668;23.250;2023-06-22T06:45:09;10.90;;;9.90;;
5297;SDS011;14738;42.668;23.250;2023-06-22T06:47:41;10.80;;;10.00;;
5297;SDS011;14738;42.668;23.250;2023-06-22T06:50:06;11.00;;;9.57;;
5297;SDS011;14738;42.668;23.250;2023-06-22T06:52:32;13.00;;;10.90;;
5297;SDS011;14738;42.668;23.250;2023-06-22T06:54:58;12.00;;;10.90;;
5297;SDS011;14738;42.668;23.250;2023-06-22T06:57:25;11.63;;;10.57;;
5297;SDS011;14738;42.668;23.250;2023-06-22T06:59:55;10.33;;;9.53;;
5297;SDS011;14738;42.668;23.250;2023-06-22T07:02:21;11.10;;;10.30;;
5297;SDS011;14738;42.668;23.250;2023-06-22T07:04:47;10.83;;;10.03;;
5297;SDS011;14738;42.668;23.250;2023-06-22T07:07:13;11.10;;;10.10;;
5297;SDS011;14738;42.668;23.250;2023-06-22T07:09:39;11.20;;;10.30;;
5297;SDS011;14738;42.668;23.250;2023-06-22T07:12:04;10.90;;;10.00;;
5297;SDS011;14738;42.668;23.250;2023-06-22T07:14:30;13.40;;;12.00;;
5297;SDS011;14738;42.668;23.250;2023-06-22T07:16:56;11.80;;;10.90;;
5297;SDS011;14738;42.668;23.250;2023-06-22T07:19:25;11.93;;;10.93;;
5297;SDS011;14738;42.668;23.250;2023-06-22T07:21:52;12.67;;;11.47;;
5297;SDS011;14738;42.668;23.250;2023-06-22T07:24:19;12.50;;;11.50;;
5297;SDS011;14738;42.668;23.250;2023-06-22T07:26:50;10.30;;;9.60;;
5297;SDS011;14738;42.668;23.250;2023-06-22T07:29:19;10.60;;;8.70;;
5297;SDS011;14738;42.668;23.250;2023-06-22T07:31:47;11.73;;;10.77;;
5297;SDS011;14738;42.668;23.250;2023-06-22T07:34:15;12.33;;;11.20;;
5297;SDS011;14738;42.668;23.250;2023-06-22T07:36:40;12.07;;;10.93;;
5297;SDS011;14738;42.668;23.250;2023-06-22T07:39:06;13.13;;;11.97;;
5297;SDS011;14738;42.668;23.250;2023-06-22T07:41:31;12.70;;;11.20;;
5297;SDS011;14738;42.668;23.250;2023-06-22T07:43:57;13.70;;;12.60;;
5297;SDS011;14738;42.668;23.250;2023-06-22T07:46:23;14.70;;;12.43;;
5297;SDS011;14738;42.668;23.250;2023-06-22T07:48:48;14.23;;;12.87;;
5297;SDS011;14738;42.668;23.250;2023-06-22T07:51:14;12.43;;;11.43;;
5297;SDS011;14738;42.668;23.250;2023-06-22T07:53:43;14.10;;;12.90;;
5297;SDS011;14738;42.668;23.250;2023-06-22T07:56:12;14.53;;;13.13;;
5297;SDS011;14738;42.668;23.250;2023-06-22T07:58:38;14.03;;;12.33;;
5297;SDS011;14738;42.668;23.250;2023-06-22T08:01:04;17.83;;;13.73;;
5297;SDS011;14738;42.668;23.250;2023-06-22T08:03:31;14.53;;;13.23;;
5297;SDS011;14738;42.668;23.250;2023-06-22T08:05:56;14.10;;;12.57;;
5297;SDS011;14738;42.668;23.250;2023-06-22T08:08:22;14.13;;;12.90;;
5297;SDS011;14738;42.668;23.250;2023-06-22T08:10:47;13.83;;;12.63;;
5297;SDS011;14738;42.668;23.250;2023-06-22T08:13:13;14.00;;;12.90;;
5297;SDS011;14738;42.668;23.250;2023-06-22T08:15:38;14.30;;;13.03;;
5297;SDS011;14738;42.668;23.250;2023-06-22T08:18:05;12.77;;;11.77;;
5297;SDS011;14738;42.668;23.250;2023-06-22T08:20:30;13.67;;;12.50;;
5297;SDS011;14738;42.668;23.250;2023-06-22T08:22:56;14.30;;;12.80;;
5297;SDS011;14738;42.668;23.250;2023-06-22T08:25:23;14.50;;;13.00;;
5297;SDS011;14738;42.668;23.250;2023-06-22T08:27:48;13.60;;;12.33;;
5297;SDS011;14738;42.668;23.250;2023-06-22T08:30:14;13.47;;;12.27;;
5297;SDS011;14738;42.668;23.250;2023-06-22T08:32:40;14.43;;;13.23;;
5297;SDS011;14738;42.668;23.250;2023-06-22T08:35:06;12.80;;;11.73;;
5297;SDS011;14738;42.668;23.250;2023-06-22T08:37:33;13.97;;;12.97;;
5297;SDS011;14738;42.668;23.250;2023-06-22T08:40:00;12.30;;;11.40;;
5297;SDS011;14738;42.668;23.250;2023-06-22T08:42:27;12.73;;;11.80;;
5297;SDS011;14738;42.668;23.250;2023-06-22T08:44:52;13.07;;;12.07;;
5297;SDS011;14738;42.668;23.250;2023-06-22T08:47:18;13.03;;;11.93;;
5297;SDS011;14738;42.668;23.250;2023-06-22T08:49:44;13.87;;;12.57;;
5297;SDS011;14738;42.668;23.250;2023-06-22T08:52:10;14.23;;;12.80;;
5297;SDS011;14738;42.668;23.250;2023-06-22T08:54:35;13.07;;;11.97;;
5297;SDS011;14738;42.668;23.250;2023-06-22T08:57:01;13.10;;;11.90;;
5297;SDS011;14738;42.668;23.250;2023-06-22T08:59:27;12.90;;;11.57;;
5297;SDS011;14738;42.668;23.250;2023-06-22T09:01:53;14.33;;;13.03;;
5297;SDS011;14738;42.668;23.250;2023-06-22T09:04:18;12.70;;;11.70;;
5297;SDS011;14738;42.668;23.250;2023-06-22T09:06:43;13.40;;;11.60;;
5297;SDS011;14738;42.668;23.250;2023-06-22T09:09:12;11.80;;;10.80;;
5297;SDS011;14738;42.668;23.250;2023-06-22T09:11:38;11.10;;;10.10;;
5297;SDS011;14738;42.668;23.250;2023-06-22T09:14:04;11.40;;;10.60;;
5297;SDS011;14738;42.668;23.250;2023-06-22T09:16:30;12.90;;;11.80;;
5297;SDS011;14738;42.668;23.250;2023-06-22T09:18:55;10.67;;;9.87;;
5297;SDS011;14738;42.668;23.250;2023-06-22T09:21:21;11.37;;;10.47;;
5297;SDS011;14738;42.668;23.250;2023-06-22T09:23:46;13.03;;;11.90;;
5297;SDS011;14738;42.668;23.250;2023-06-22T09:26:15;11.20;;;10.20;;
5297;SDS011;14738;42.668;23.250;2023-06-22T09:28:41;11.97;;;11.00;;
5297;SDS011;14738;42.668;23.250;2023-06-22T09:31:06;11.60;;;10.67;;
5297;SDS011;14738;42.668;23.250;2023-06-22T09:33:32;10.37;;;9.40;;
5297;SDS011;14738;42.668;23.250;2023-06-22T09:35:57;11.00;;;10.00;;
5297;SDS011;14738;42.668;23.250;2023-06-22T09:38:23;11.53;;;10.60;;
5297;SDS011;14738;42.668;23.250;2023-06-22T09:40:48;12.13;;;11.03;;
5297;SDS011;14738;42.668;23.250;2023-06-22T09:43:13;12.00;;;11.00;;
5297;SDS011;14738;42.668;23.250;2023-06-22T09:45:39;10.53;;;9.73;;
5297;SDS011;14738;42.668;23.250;2023-06-22T09:48:04;10.03;;;9.13;;
5297;SDS011;14738;42.668;23.250;2023-06-22T09:50:30;10.77;;;9.73;;
5297;SDS011;14738;42.668;23.250;2023-06-22T09:52:55;10.23;;;9.43;;
5297;SDS011;14738;42.668;23.250;2023-06-22T09:55:21;10.80;;;10.10;;
5297;SDS011;14738;42.668;23.250;2023-06-22T09:57:47;10.93;;;9.93;;
5297;SDS011;14738;42.668;23.250;2023-06-22T10:00:13;11.53;;;10.53;;
5297;SDS011;14738;42.668;23.250;2023-06-22T10:02:43;10.37;;;9.57;;
5297;SDS011;14738;42.668;23.250;2023-06-22T10:05:09;11.30;;;10.40;;
5297;SDS011;14738;42.668;23.250;2023-06-22T10:07:35;11.17;;;10.27;;
5297;SDS011;14738;42.668;23.250;2023-06-22T10:10:05;11.03;;;10.07;;
5297;SDS011;14738;42.668;23.250;2023-06-22T10:12:31;11.03;;;9.97;;
5297;SDS011;14738;42.668;23.250;2023-06-22T10:14:57;10.37;;;9.47;;
5297;SDS011;14738;42.668;23.250;2023-06-22T10:17:22;9.97;;;9.27;;
5297;SDS011;14738;42.668;23.250;2023-06-22T10:19:47;10.93;;;10.20;;
5297;SDS011;14738;42.668;23.250;2023-06-22T10:22:13;9.87;;;8.97;;
5297;SDS011;14738;42.668;23.250;2023-06-22T10:24:38;9.70;;;8.80;;
5297;SDS011;14738;42.668;23.250;2023-06-22T10:27:09;9.60;;;8.90;;
5297;SDS011;14738;42.668;23.250;2023-06-22T10:29:35;10.60;;;9.60;;
5297;SDS011;14738;42.668;23.250;2023-06-22T10:32:01;8.93;;;8.27;;
5297;SDS011;14738;42.668;23.250;2023-06-22T10:34:27;9.17;;;8.57;;
5297;SDS011;14738;42.668;23.250;2023-06-22T10:36:52;9.13;;;8.40;;
5297;SDS011;14738;42.668;23.250;2023-06-22T10:39:18;8.97;;;8.30;;
5297;SDS011;14738;42.668;23.250;2023-06-22T10:41:43;10.37;;;9.63;;
5297;SDS011;14738;42.668;23.250;2023-06-22T10:44:09;9.90;;;9.20;;
5297;SDS011;14738;42.668;23.250;2023-06-22T10:46:34;11.40;;;10.47;;
5297;SDS011;14738;42.668;23.250;2023-06-22T10:49:00;11.00;;;10.17;;
5297;SDS011;14738;42.668;23.250;2023-06-22T10:51:25;11.13;;;10.17;;
5297;SDS011;14738;42.668;23.250;2023-06-22T10:53:51;10.63;;;9.83;;
5297;SDS011;14738;42.668;23.250;2023-06-22T10:56:16;11.40;;;10.43;;
5297;SDS011;14738;42.668;23.250;2023-06-22T10:58:43;11.40;;;10.50;;
5297;SDS011;14738;42.668;23.250;2023-06-22T11:01:09;9.77;;;9.03;;
5297;SDS011;14738;42.668;23.250;2023-06-22T11:03:35;11.73;;;10.83;;
5297;SDS011;14738;42.668;23.250;2023-06-22T11:06:00;11.60;;;10.60;;
5297;SDS011;14738;42.668;23.250;2023-06-22T11:08:25;11.00;;;9.17;;
5297;SDS011;14738;42.668;23.250;2023-06-22T11:10:51;10.63;;;9.83;;
5297;SDS011;14738;42.668;23.250;2023-06-22T11:13:17;11.77;;;10.57;;
5297;SDS011;14738;42.668;23.250;2023-06-22T11:15:42;9.33;;;8.70;;
5297;SDS011;14738;42.668;23.250;2023-06-22T11:18:07;11.07;;;10.27;;
5297;SDS011;14738;42.668;23.250;2023-06-22T11:20:33;9.87;;;9.13;;
5297;SDS011;14738;42.668;23.250;2023-06-22T11:23:03;10.70;;;9.80;;
5297;SDS011;14738;42.668;23.250;2023-06-22T11:25:29;10.90;;;10.03;;
5297;SDS011;14738;42.668;23.250;2023-06-22T11:27:54;11.13;;;10.13;;
5297;SDS011;14738;42.668;23.250;2023-06-22T11:30:20;11.27;;;10.20;;
5297;SDS011;14738;42.668;23.250;2023-06-22T11:32:46;12.13;;;11.13;;
5297;SDS011;14738;42.668;23.250;2023-06-22T11:35:11;11.00;;;10.20;;
5297;SDS011;14738;42.668;23.250;2023-06-22T11:37:36;11.10;;;10.10;;
5297;SDS011;14738;42.668;23.250;2023-06-22T11:40:02;11.50;;;10.70;;
5297;SDS011;14738;42.668;23.250;2023-06-22T11:42:30;11.33;;;10.30;;
5297;SDS011;14738;42.668;23.250;2023-06-22T11:44:55;10.77;;;10.07;;
5297;SDS011;14738;42.668;23.250;2023-06-22T11:47:21;11.23;;;10.23;;
5297;SDS011;14738;42.668;23.250;2023-06-22T11:49:46;11.60;;;10.70;;
5297;SDS011;14738;42.668;23.250;2023-06-22T11:52:11;11.70;;;10.70;;
5297;SDS011;14738;42.668;23.250;2023-06-22T11:54:37;11.93;;;10.80;;
5297;SDS011;14738;42.668;23.250;2023-06-22T11:57:03;13.50;;;12.30;;
5297;SDS011;14738;42.668;23.250;2023-06-22T11:59:29;12.47;;;11.50;;
5297;SDS011;14738;42.668;23.250;2023-06-22T12:01:54;12.30;;;11.30;;
5297;SDS011;14738;42.668;23.250;2023-06-22T12:04:20;12.57;;;11.37;;
5297;SDS011;14738;42.668;23.250;2023-06-22T12:06:45;12.23;;;11.30;;
5297;SDS011;14738;42.668;23.250;2023-06-22T12:09:11;12.77;;;11.67;;
5297;SDS011;14738;42.668;23.250;2023-06-22T12:11:38;11.70;;;10.70;;
5297;SDS011;14738;42.668;23.250;2023-06-22T12:14:04;12.67;;;11.67;;
5297;SDS011;14738;42.668;23.250;2023-06-22T12:16:29;13.37;;;12.07;;
5297;SDS011;14738;42.668;23.250;2023-06-22T12:18:55;13.57;;;12.37;;
5297;SDS011;14738;42.668;23.250;2023-06-22T12:21:20;13.23;;;12.00;;
5297;SDS011;14738;42.668;23.250;2023-06-22T12:23:45;12.10;;;10.97;;
5297;SDS011;14738;42.668;23.250;2023-06-22T12:26:11;14.03;;;10.93;;
5297;SDS011;14738;42.668;23.250;2023-06-22T12:28:36;12.83;;;11.73;;
5297;SDS011;14738;42.668;23.250;2023-06-22T12:31:02;13.13;;;11.97;;
5297;SDS011;14738;42.668;23.250;2023-06-22T12:33:27;14.80;;;12.40;;
5297;SDS011;14738;42.668;23.250;2023-06-22T12:35:52;15.07;;;12.00;;
5297;SDS011;14738;42.668;23.250;2023-06-22T12:38:18;21.77;;;12.97;;
5297;SDS011;14738;42.668;23.250;2023-06-22T12:40:43;15.40;;;12.03;;
5297;SDS011;14738;42.668;23.250;2023-06-22T12:43:09;15.03;;;10.80;;
5297;SDS011;14738;42.668;23.250;2023-06-22T12:45:34;12.53;;;11.07;;
5297;SDS011;14738;42.668;23.250;2023-06-22T12:47:59;12.17;;;10.90;;
5297;SDS011;14738;42.668;23.250;2023-06-22T12:50:25;12.00;;;9.80;;
5297;SDS011;14738;42.668;23.250;2023-06-22T12:52:50;11.17;;;9.97;;
5297;SDS011;14738;42.668;23.250;2023-06-22T12:55:16;12.57;;;11.23;;
5297;SDS011;14738;42.668;23.250;2023-06-22T12:57:41;14.30;;;11.90;;
5297;SDS011;14738;42.668;23.250;2023-06-22T13:00:07;11.33;;;10.00;;
5297;SDS011;14738;42.668;23.250;2023-06-22T13:02:35;15.17;;;11.50;;
5297;SDS011;14738;42.668;23.250;2023-06-22T13:05:01;14.33;;;12.90;;
5297;SDS011;14738;42.668;23.250;2023-06-22T13:07:27;12.40;;;11.10;;
5297;SDS011;14738;42.668;23.250;2023-06-22T13:09:52;12.05;;;10.80;;
5297;SDS011;14738;42.668;23.250;2023-06-22T13:12:18;12.77;;;11.60;;
5297;SDS011;14738;42.668;23.250;2023-06-22T13:14:45;15.57;;;10.60;;
5297;SDS011;14738;42.668;23.250;2023-06-22T13:17:11;11.90;;;10.60;;
5297;SDS011;14738;42.668;23.250;2023-06-22T13:19:37;10.10;;;9.20;;
5297;SDS011;14738;42.668;23.250;2023-06-22T13:22:03;10.80;;;9.80;;
5297;SDS011;14738;42.668;23.250;2023-06-22T13:24:29;10.37;;;9.40;;
5297;SDS011;14738;42.668;23.250;2023-06-22T13:26:54;9.43;;;8.53;;
5297;SDS011;14738;42.668;23.250;2023-06-22T13:29:20;8.60;;;8.00;;
5297;SDS011;14738;42.668;23.250;2023-06-22T13:31:45;10.00;;;9.07;;
5297;SDS011;14738;42.668;23.250;2023-06-22T13:34:11;10.30;;;9.30;;
5297;SDS011;14738;42.668;23.250;2023-06-22T13:36:36;10.17;;;9.27;;
5297;SDS011;14738;42.668;23.250;2023-06-22T13:39:02;11.63;;;10.53;;
5297;SDS011;14738;42.668;23.250;2023-06-22T13:41:27;13.37;;;10.10;;
5297;SDS011;14738;42.668;23.250;2023-06-22T13:43:53;12.10;;;10.70;;
5297;SDS011;14738;42.668;23.250;2023-06-22T13:46:18;12.30;;;11.10;;
5297;SDS011;14738;42.668;23.250;2023-06-22T13:48:44;12.90;;;11.70;;
5297;SDS011;14738;42.668;23.250;2023-06-22T13:51:09;15.00;;;11.90;;
5297;SDS011;14738;42.668;23.250;2023-06-22T13:53:34;12.87;;;10.70;;
5297;SDS011;14738;42.668;23.250;2023-06-22T13:56:00;14.00;;;11.80;;
5297;SDS011;14738;42.668;23.250;2023-06-22T13:58:25;14.27;;;11.30;;
5297;SDS011;14738;42.668;23.250;2023-06-22T14:00:50;15.00;;;12.87;;
5297;SDS011;14738;42.668;23.250;2023-06-22T14:03:16;14.40;;;11.57;;
5297;SDS011;14738;42.668;23.250;2023-06-22T14:05:42;13.33;;;12.00;;
5297;SDS011;14738;42.668;23.250;2023-06-22T14:08:07;13.40;;;12.10;;
5297;SDS011;14738;42.668;23.250;2023-06-22T14:10:34;12.50;;;11.23;;
5297;SDS011;14738;42.668;23.250;2023-06-22T14:12:59;15.63;;;12.20;;
5297;SDS011;14738;42.668;23.250;2023-06-22T14:15:25;12.63;;;11.40;;
5297;SDS011;14738;42.668;23.250;2023-06-22T14:17:51;12.83;;;11.70;;
5297;SDS011;14738;42.668;23.250;2023-06-22T14:20:17;13.73;;;12.00;;
5297;SDS011;14738;42.668;23.250;2023-06-22T14:22:42;14.50;;;13.00;;
5297;SDS011;14738;42.668;23.250;2023-06-22T14:25:08;13.77;;;12.33;;
5297;SDS011;14738;42.668;23.250;2023-06-22T14:27:33;12.83;;;11.63;;
5297;SDS011;14738;42.668;23.250;2023-06-22T14:29:59;12.80;;;11.60;;